createdAt,value
2023-01-28T00:01:23.944Z,2.10
2023-01-28T00:03:52.031Z,1.63
2023-01-28T00:06:19.464Z,1.80
2023-01-28T00:08:46.394Z,1.60
2023-01-28T00:11:14.288Z,1.80
2023-01-28T00:13:41.690Z,2.03
2023-01-28T00:16:10.329Z,1.97
2023-01-28T00:18:37.767Z,1.80
2023-01-28T00:21:06.674Z,1.80
2023-01-28T00:23:35.268Z,1.70
2023-01-28T00:26:04.078Z,1.93
2023-01-28T00:28:31.046Z,2.27
2023-01-28T00:30:58.019Z,1.57
2023-01-28T00:33:26.271Z,1.77
2023-01-28T00:36:01.044Z,1.90
2023-01-28T00:38:28.057Z,1.90
2023-01-28T00:40:55.097Z,1.90
2023-01-28T00:43:22.453Z,1.97
2023-01-28T00:45:50.448Z,2.03
2023-01-28T00:48:17.390Z,1.93
2023-01-28T00:50:46.079Z,1.87
2023-01-28T00:53:12.913Z,2.13
2023-01-28T00:55:39.823Z,1.80
2023-01-28T00:58:06.703Z,1.90
2023-01-28T01:00:33.586Z,1.93
2023-01-28T01:03:00.565Z,1.67
2023-01-28T01:05:29.515Z,1.90
2023-01-28T01:07:57.711Z,2.37
2023-01-28T01:10:24.716Z,2.00
2023-01-28T01:12:51.660Z,2.13
2023-01-28T01:15:19.817Z,1.80
2023-01-28T01:17:49.296Z,1.70
2023-01-28T01:20:18.471Z,1.80
2023-01-28T01:22:45.557Z,2.30
2023-01-28T01:25:15.792Z,1.57
2023-01-28T01:27:43.637Z,1.73
2023-01-28T01:30:11.936Z,2.00
2023-01-28T01:32:39.084Z,2.10
2023-01-28T01:35:08.050Z,2.20
2023-01-28T01:37:35.701Z,1.87
2023-01-28T01:40:03.194Z,2.37
2023-01-28T01:42:31.735Z,2.33
2023-01-28T01:45:04.286Z,2.03
2023-01-28T01:47:37.982Z,2.20
2023-01-28T01:50:17.634Z,1.73
2023-01-28T01:52:48.894Z,2.07
2023-01-28T01:55:19.599Z,1.60
2023-01-28T01:57:49.646Z,2.03
2023-01-28T02:00:17.855Z,1.77
2023-01-28T02:02:47.125Z,2.07
2023-01-28T02:05:17.728Z,2.00
2023-01-28T02:07:46.813Z,2.10
2023-01-28T02:10:14.403Z,1.90
2023-01-28T02:12:43.538Z,2.03
2023-01-28T02:15:16.588Z,1.70
2023-01-28T02:17:44.180Z,1.90
2023-01-28T02:20:13.210Z,2.30
2023-01-28T02:23:17.433Z,2.47
2023-01-28T02:26:33.032Z,1.70
2023-01-28T02:29:05.672Z,2.03
2023-01-28T02:31:38.905Z,1.77
2023-01-28T02:34:12.149Z,1.80
2023-01-28T02:36:46.638Z,2.17
2023-01-28T02:39:18.448Z,1.70
2023-01-28T02:41:50.822Z,1.90
2023-01-28T02:44:19.017Z,1.60
2023-01-28T02:47:04.596Z,2.00
2023-01-28T02:49:39.172Z,1.50
2023-01-28T02:52:45.517Z,1.67
2023-01-28T02:55:20.818Z,1.57
2023-01-28T02:57:58.383Z,1.77
2023-01-28T03:00:34.445Z,1.67
2023-01-28T03:03:11.961Z,1.70
2023-01-28T03:06:02.975Z,1.50
2023-01-28T03:08:53.788Z,1.40
2023-01-28T03:11:39.334Z,2.07
2023-01-28T03:14:26.213Z,1.67
2023-01-28T03:17:15.989Z,1.63
2023-01-28T03:20:01.478Z,1.30
2023-01-28T03:22:51.410Z,1.63
2023-01-28T03:25:38.682Z,1.50
2023-01-28T03:28:27.570Z,2.03
2023-01-28T03:31:19.348Z,1.93
2023-01-28T03:34:06.807Z,1.57
2023-01-28T03:36:53.176Z,1.37
2023-01-28T03:39:25.657Z,1.70
2023-01-28T03:41:57.549Z,1.80
2023-01-28T03:44:44.183Z,1.43
2023-01-28T03:47:11.600Z,1.40
2023-01-28T03:49:41.018Z,1.83
2023-01-28T03:52:08.017Z,1.60
2023-01-28T03:54:35.016Z,1.80
2023-01-28T03:57:01.991Z,2.10
2023-01-28T03:59:28.907Z,1.93
2023-01-28T04:01:55.780Z,1.90
2023-01-28T04:04:24.425Z,2.40
2023-01-28T04:06:53.937Z,2.27
2023-01-28T04:09:21.540Z,2.03
2023-01-28T04:11:49.390Z,1.83
2023-01-28T04:14:16.399Z,1.73
2023-01-28T04:16:43.966Z,1.53
2023-01-28T04:19:12.750Z,1.63
2023-01-28T04:21:39.844Z,1.70
2023-01-28T04:24:08.542Z,1.70
2023-01-28T04:26:35.643Z,1.90
2023-01-28T04:29:03.067Z,1.40
2023-01-28T04:31:30.157Z,1.63
2023-01-28T04:33:57.119Z,1.77
2023-01-28T04:36:24.078Z,1.57
2023-01-28T04:38:51.100Z,2.00
2023-01-28T04:41:20.383Z,1.43
2023-01-28T04:43:49.252Z,1.53
2023-01-28T04:46:16.476Z,1.73
2023-01-28T04:48:43.510Z,2.00
2023-01-28T04:51:10.420Z,1.57
2023-01-28T04:53:37.276Z,1.90
2023-01-28T04:56:04.518Z,2.10
2023-01-28T04:58:32.772Z,2.00
2023-01-28T05:01:00.095Z,1.50
2023-01-28T05:03:27.394Z,1.60
2023-01-28T05:05:54.308Z,1.63
2023-01-28T05:08:21.288Z,1.50
2023-01-28T05:10:48.172Z,1.87
2023-01-28T05:13:14.972Z,1.80
2023-01-28T05:15:43.195Z,2.20
2023-01-28T05:18:10.058Z,1.70
2023-01-28T05:20:36.913Z,1.83
2023-01-28T05:23:03.885Z,2.00
2023-01-28T05:25:30.764Z,1.73
2023-01-28T05:27:57.682Z,1.93
2023-01-28T05:30:24.558Z,1.87
2023-01-28T05:32:57.213Z,2.20
2023-01-28T05:35:24.056Z,1.77
2023-01-28T05:37:51.738Z,1.70
2023-01-28T05:40:19.029Z,2.00
2023-01-28T05:42:46.005Z,1.57
2023-01-28T05:45:13.231Z,1.60
2023-01-28T05:47:40.371Z,1.77
2023-01-28T05:50:11.013Z,1.70
2023-01-28T05:52:37.893Z,1.77
2023-01-28T05:55:05.511Z,1.67
2023-01-28T05:57:32.578Z,1.90
2023-01-28T05:59:59.531Z,1.83
2023-01-28T06:02:26.484Z,2.10
2023-01-28T06:04:53.389Z,2.13
2023-01-28T06:07:21.609Z,2.10
2023-01-28T06:09:48.543Z,2.10
2023-01-28T06:12:16.008Z,1.90
2023-01-28T06:14:43.042Z,1.93
2023-01-28T06:17:09.896Z,1.60
2023-01-28T06:19:36.790Z,2.00
2023-01-28T06:22:03.864Z,2.03
2023-01-28T06:24:32.130Z,2.10
2023-01-28T06:26:59.189Z,1.97
2023-01-28T06:29:26.058Z,1.50
2023-01-28T06:31:53.317Z,1.77
2023-01-28T06:34:20.519Z,2.77
2023-01-28T06:36:47.331Z,1.80
2023-01-28T06:39:14.189Z,1.70
2023-01-28T06:41:42.531Z,1.57
2023-01-28T06:44:09.438Z,1.37
2023-01-28T06:46:36.387Z,1.93
2023-01-28T06:49:03.288Z,1.77
2023-01-28T06:51:30.227Z,1.77
2023-01-28T06:53:57.095Z,1.80
2023-01-28T06:56:24.185Z,4.00
2023-01-28T06:58:52.441Z,2.20
2023-01-28T07:01:19.235Z,1.43
2023-01-28T07:03:46.094Z,1.83
2023-01-28T07:06:13.041Z,1.90
2023-01-28T07:08:41.342Z,1.80
2023-01-28T07:11:08.426Z,1.30
2023-01-28T07:13:35.580Z,1.43
2023-01-28T07:16:04.181Z,1.30
2023-01-28T07:18:31.149Z,1.57
2023-01-28T07:20:58.106Z,1.47
2023-01-28T07:23:25.061Z,1.53
2023-01-28T07:25:51.940Z,1.40
2023-01-28T07:28:21.852Z,1.63
2023-01-28T07:30:51.402Z,1.20
2023-01-28T07:33:21.495Z,2.00
2023-01-28T07:35:49.001Z,1.60
2023-01-28T07:38:16.307Z,1.73
2023-01-28T07:40:43.142Z,1.47
2023-01-28T07:43:10.081Z,1.60
2023-01-28T07:45:37.212Z,1.83
2023-01-28T07:48:06.810Z,1.47
2023-01-28T07:50:37.710Z,1.70
2023-01-28T07:53:05.708Z,1.60
2023-01-28T07:55:35.761Z,1.30
2023-01-28T07:58:04.065Z,1.80
2023-01-28T08:00:33.218Z,1.57
2023-01-28T08:03:01.981Z,2.23
2023-01-28T08:05:41.190Z,1.77
2023-01-28T08:08:09.119Z,1.90
2023-01-28T08:10:36.856Z,1.57
2023-01-28T08:13:04.455Z,1.37
2023-01-28T08:15:34.094Z,1.70
2023-01-28T08:18:01.961Z,1.70
2023-01-28T08:20:29.698Z,1.70
2023-01-28T08:23:07.017Z,1.47
2023-01-28T08:25:34.344Z,1.50
2023-01-28T08:28:01.646Z,1.70
2023-01-28T08:30:28.458Z,1.80
2023-01-28T08:32:56.901Z,1.70
2023-01-28T08:35:23.952Z,1.70
2023-01-28T08:37:50.877Z,1.70
2023-01-28T08:40:19.358Z,2.03
2023-01-28T08:42:50.226Z,1.70
2023-01-28T08:45:17.507Z,1.67
2023-01-28T08:47:50.696Z,1.40
2023-01-28T08:50:18.352Z,1.50
2023-01-28T08:52:45.955Z,1.50
2023-01-28T08:55:13.261Z,1.60
2023-01-28T08:57:41.966Z,1.97
2023-01-28T09:00:13.097Z,1.50
2023-01-28T09:02:40.154Z,1.43
2023-01-28T09:05:08.380Z,1.27
2023-01-28T09:07:35.795Z,1.30
2023-01-28T09:10:03.200Z,1.20
2023-01-28T09:12:30.158Z,1.30
2023-01-28T09:14:58.280Z,1.33
2023-01-28T09:17:25.452Z,1.13
2023-01-28T09:19:52.331Z,1.00
2023-01-28T09:22:19.253Z,1.10
2023-01-28T09:24:46.100Z,1.30
2023-01-28T09:27:13.091Z,1.77
2023-01-28T09:29:39.934Z,1.30
2023-01-28T09:32:08.388Z,1.57
2023-01-28T09:34:35.420Z,1.03
2023-01-28T09:37:02.401Z,1.60
2023-01-28T09:39:29.188Z,1.33
2023-01-28T09:42:09.688Z,1.30
2023-01-28T09:44:51.828Z,1.30
2023-01-28T09:47:26.301Z,1.33
2023-01-28T09:49:57.094Z,1.20
2023-01-28T09:52:26.473Z,1.40
2023-01-28T09:54:59.813Z,1.30
2023-01-28T09:57:30.441Z,1.53
2023-01-28T09:59:58.235Z,1.73
2023-01-28T10:02:39.558Z,1.40
2023-01-28T10:05:18.274Z,1.43
2023-01-28T10:07:52.836Z,1.70
2023-01-28T10:10:26.268Z,1.47
2023-01-28T10:13:05.160Z,1.30
2023-01-28T10:15:57.407Z,1.20
2023-01-28T10:18:34.489Z,1.47
2023-01-28T10:21:08.460Z,1.30
2023-01-28T10:23:44.131Z,1.10
2023-01-28T10:26:19.356Z,1.53
2023-01-28T10:28:51.789Z,1.57
2023-01-28T10:31:19.242Z,2.20
2023-01-28T10:33:47.521Z,1.57
2023-01-28T10:36:15.427Z,1.33
2023-01-28T10:38:42.377Z,1.40
2023-01-28T10:41:13.111Z,1.70
2023-01-28T10:43:41.751Z,1.43
2023-01-28T10:46:14.387Z,1.60
2023-01-28T10:48:48.665Z,1.73
2023-01-28T10:51:15.896Z,1.63
2023-01-28T10:53:44.344Z,1.60
2023-01-28T10:56:14.721Z,1.50
2023-01-28T10:58:53.391Z,1.60
2023-01-28T11:01:20.871Z,1.30
2023-01-28T11:03:58.082Z,1.47
2023-01-28T11:06:27.478Z,1.40
2023-01-28T11:08:54.442Z,1.27
2023-01-28T11:11:25.867Z,1.17
2023-01-28T11:13:58.616Z,1.20
2023-01-28T11:16:26.765Z,1.47
2023-01-28T11:19:00.056Z,1.40
2023-01-28T11:21:29.645Z,1.37
2023-01-28T11:23:59.860Z,1.00
2023-01-28T11:26:30.993Z,1.30
2023-01-28T11:28:58.608Z,1.20
2023-01-28T11:31:27.377Z,1.40
2023-01-28T11:33:58.075Z,1.30
2023-01-28T11:36:27.062Z,1.10
2023-01-28T11:38:55.586Z,1.17
2023-01-28T11:41:29.188Z,1.03
2023-01-28T11:43:56.474Z,1.10
2023-01-28T11:46:46.215Z,1.60
2023-01-28T11:49:22.871Z,1.13
2023-01-28T11:51:57.275Z,1.33
2023-01-28T11:54:36.692Z,1.20
2023-01-28T11:57:17.518Z,1.23
2023-01-28T11:59:59.541Z,1.37
2023-01-28T12:02:44.669Z,1.57
2023-01-28T12:05:30.543Z,1.20
2023-01-28T12:08:06.535Z,1.40
2023-01-28T12:10:45.455Z,1.07
2023-01-28T12:13:29.664Z,1.55
2023-01-28T12:16:13.870Z,1.40
2023-01-28T12:19:10.514Z,1.38
2023-01-28T12:21:54.158Z,1.50
2023-01-28T12:24:35.527Z,1.13
2023-01-28T12:27:10.811Z,0.90
2023-01-28T12:29:47.435Z,1.10
2023-01-28T12:32:39.168Z,1.07
2023-01-28T12:35:32.661Z,1.10
2023-01-28T12:38:09.107Z,1.03
2023-01-28T12:40:56.937Z,0.87
2023-01-28T12:43:38.546Z,0.93
2023-01-28T12:46:11.242Z,1.20
2023-01-28T12:48:42.765Z,1.10
2023-01-28T12:51:14.691Z,1.00
2023-01-28T12:53:47.787Z,0.90
2023-01-28T12:56:17.432Z,0.87
2023-01-28T12:58:49.634Z,0.70
2023-01-28T13:01:21.487Z,1.00
2023-01-28T13:03:53.398Z,1.00
2023-01-28T13:06:29.910Z,1.23
2023-01-28T13:09:00.894Z,0.93
2023-01-28T13:11:35.119Z,0.83
2023-01-28T13:14:03.560Z,1.40
2023-01-28T13:16:37.294Z,1.80
2023-01-28T13:19:07.645Z,1.13
2023-01-28T13:21:47.594Z,1.00
2023-01-28T13:24:32.012Z,1.10
2023-01-28T13:26:58.968Z,1.10
2023-01-28T13:29:31.068Z,1.27
2023-01-28T13:31:59.755Z,1.23
2023-01-28T13:34:33.761Z,0.83
2023-01-28T13:37:05.820Z,1.47
2023-01-28T13:39:35.543Z,1.03
2023-01-28T13:42:20.308Z,1.20
2023-01-28T13:44:47.124Z,1.20
2023-01-28T13:47:20.098Z,0.90
2023-01-28T13:49:49.857Z,1.00
2023-01-28T13:52:21.460Z,1.20
2023-01-28T13:54:54.778Z,1.27
2023-01-28T13:57:58.153Z,1.00
2023-01-28T14:00:29.480Z,0.87
2023-01-28T14:03:31.400Z,1.00
2023-01-28T14:06:26.521Z,1.10
2023-01-28T14:09:10.463Z,1.47
2023-01-28T14:12:24.587Z,2.67
2023-01-28T14:15:16.572Z,1.10
2023-01-28T14:17:46.173Z,0.90
2023-01-28T14:20:20.702Z,0.80
2023-01-28T14:22:48.253Z,1.13
2023-01-28T14:25:20.913Z,0.90
2023-01-28T14:27:53.573Z,1.00
2023-01-28T14:30:25.793Z,1.20
2023-01-28T14:32:54.358Z,0.97
2023-01-28T14:35:28.978Z,1.00
2023-01-28T14:37:57.306Z,0.90
2023-01-28T14:40:25.532Z,1.00
2023-01-28T14:42:56.205Z,1.27
2023-01-28T14:45:38.814Z,0.83
2023-01-28T14:48:27.207Z,1.00
2023-01-28T14:51:09.170Z,1.10
2023-01-28T14:53:59.091Z,0.97
2023-01-28T14:56:36.720Z,0.90
2023-01-28T14:59:12.206Z,0.90
2023-01-28T15:01:44.902Z,0.93
2023-01-28T15:04:26.881Z,1.00
2023-01-28T15:06:53.982Z,1.10
2023-01-28T15:09:22.190Z,0.90
2023-01-28T15:11:51.292Z,0.80
2023-01-28T15:14:26.929Z,1.00
2023-01-28T15:16:54.454Z,1.07
2023-01-28T15:19:27.735Z,1.00
2023-01-28T15:21:56.490Z,1.07
2023-01-28T15:24:23.644Z,1.10
2023-01-28T15:26:50.957Z,1.10
2023-01-28T15:29:26.872Z,0.90
2023-01-28T15:31:54.502Z,0.80
2023-01-28T15:34:21.640Z,0.87
2023-01-28T15:36:49.773Z,1.60
2023-01-28T15:39:18.626Z,1.87
2023-01-28T15:41:48.600Z,1.50
2023-01-28T15:44:18.641Z,1.50
2023-01-28T15:46:46.913Z,1.40
2023-01-28T15:49:15.335Z,1.53
2023-01-28T15:51:47.729Z,1.30
2023-01-28T15:54:14.683Z,1.10
2023-01-28T15:56:41.510Z,0.93
2023-01-28T15:59:22.091Z,1.63
2023-01-28T16:01:50.292Z,1.57
2023-01-28T16:04:29.696Z,1.60
2023-01-28T16:06:58.991Z,1.40
2023-01-28T16:09:29.819Z,1.40
2023-01-28T16:12:02.503Z,1.77
2023-01-28T16:14:31.975Z,1.50
2023-01-28T16:17:00.556Z,1.30
2023-01-28T16:19:38.903Z,1.60
2023-01-28T16:22:07.408Z,1.50
2023-01-28T16:24:37.969Z,1.70
2023-01-28T16:27:07.196Z,1.50
2023-01-28T16:29:35.131Z,2.03
2023-01-28T16:32:03.867Z,2.53
2023-01-28T16:34:30.861Z,2.53
2023-01-28T16:36:58.998Z,1.53
2023-01-28T16:39:25.888Z,1.90
2023-01-28T16:41:53.608Z,1.77
2023-01-28T16:44:20.512Z,1.83
2023-01-28T16:46:47.388Z,2.00
2023-01-28T16:49:15.884Z,2.00
2023-01-28T16:51:43.990Z,2.20
2023-01-28T16:54:14.942Z,2.33
2023-01-28T16:56:45.729Z,2.27
2023-01-28T16:59:14.957Z,1.77
2023-01-28T17:01:42.025Z,1.90
2023-01-28T17:04:12.106Z,2.03
2023-01-28T17:06:43.487Z,2.67
2023-01-28T17:09:11.683Z,2.97
2023-01-28T17:11:39.733Z,2.70
2023-01-28T17:14:06.969Z,2.30
2023-01-28T17:16:34.081Z,2.53
2023-01-28T17:19:01.135Z,2.00
2023-01-28T17:21:28.025Z,2.00
2023-01-28T17:23:58.177Z,1.63
2023-01-28T17:26:25.919Z,1.70
2023-01-28T17:28:53.577Z,1.90
2023-01-28T17:31:21.447Z,1.47
2023-01-28T17:33:52.702Z,1.70
2023-01-28T17:36:19.648Z,1.90
2023-01-28T17:38:46.545Z,1.63
2023-01-28T17:41:14.842Z,1.93
2023-01-28T17:43:41.857Z,2.17
2023-01-28T17:46:12.604Z,1.90
2023-01-28T17:48:39.973Z,2.10
2023-01-28T17:51:07.973Z,2.00
2023-01-28T17:53:36.151Z,2.10
2023-01-28T17:56:03.204Z,2.30
2023-01-28T17:58:32.221Z,1.90
2023-01-28T18:00:59.098Z,1.90
2023-01-28T18:03:26.108Z,1.93
2023-01-28T18:05:59.862Z,2.07
2023-01-28T18:08:26.870Z,1.73
2023-01-28T18:10:55.222Z,1.80
2023-01-28T18:13:22.432Z,1.97
2023-01-28T18:15:50.857Z,2.03
2023-01-28T18:18:17.710Z,2.00
2023-01-28T18:20:44.546Z,2.10
2023-01-28T18:23:11.361Z,2.20
2023-01-28T18:25:38.200Z,2.20
2023-01-28T18:28:05.741Z,2.80
2023-01-28T18:30:32.783Z,2.50
2023-01-28T18:33:01.035Z,2.07
2023-01-28T18:35:27.858Z,1.90
2023-01-28T18:37:55.368Z,2.70
2023-01-28T18:40:22.324Z,2.30
2023-01-28T18:42:49.143Z,2.23
2023-01-28T18:45:16.338Z,2.43
2023-01-28T18:47:43.520Z,2.10
2023-01-28T18:50:11.948Z,2.03
2023-01-28T18:52:38.820Z,1.80
2023-01-28T18:55:06.643Z,2.47
2023-01-28T18:57:33.491Z,2.10
2023-01-28T19:00:00.330Z,1.87
2023-01-28T19:02:27.204Z,1.70
2023-01-28T19:04:55.994Z,1.60
2023-01-28T19:07:24.312Z,2.10
2023-01-28T19:09:51.182Z,3.00
2023-01-28T19:12:17.975Z,2.47
2023-01-28T19:14:44.852Z,2.00
2023-01-28T19:17:11.734Z,2.67
2023-01-28T19:19:38.505Z,2.43
2023-01-28T19:22:05.488Z,2.67
2023-01-28T19:24:35.130Z,2.60
2023-01-28T19:27:02.806Z,2.10
2023-01-28T19:29:29.753Z,2.40
2023-01-28T19:31:56.619Z,2.07
2023-01-28T19:34:23.588Z,2.23
2023-01-28T19:36:50.479Z,2.80
2023-01-28T19:39:17.736Z,2.30
2023-01-28T19:41:45.936Z,2.90
2023-01-28T19:44:13.315Z,3.00
2023-01-28T19:46:41.487Z,3.07
2023-01-28T19:49:09.646Z,3.07
2023-01-28T19:51:36.869Z,2.93
2023-01-28T19:54:03.984Z,2.20
2023-01-28T19:56:31.024Z,3.10
2023-01-28T19:58:59.285Z,2.70
2023-01-28T20:01:29.924Z,2.70
2023-01-28T20:03:59.664Z,2.40
2023-01-28T20:06:29.042Z,2.50
2023-01-28T20:08:58.801Z,2.80
2023-01-28T20:11:25.768Z,2.20
2023-01-28T20:13:53.060Z,2.33
2023-01-28T20:16:23.263Z,2.90
2023-01-28T20:18:50.912Z,2.50
2023-01-28T20:21:21.515Z,2.70
2023-01-28T20:23:49.975Z,3.00
2023-01-28T20:26:18.024Z,2.73
2023-01-28T20:28:44.991Z,3.10
2023-01-28T20:31:11.975Z,2.77
2023-01-28T20:33:40.756Z,3.17
2023-01-28T20:36:09.987Z,3.33
2023-01-28T20:38:37.876Z,3.90
2023-01-28T20:41:07.066Z,3.70
2023-01-28T20:43:34.883Z,3.33
2023-01-28T20:46:03.779Z,3.00
2023-01-28T20:48:30.767Z,3.40
2023-01-28T20:51:04.741Z,2.70
2023-01-28T20:53:32.473Z,3.37
2023-01-28T20:55:59.841Z,2.60
2023-01-28T20:58:27.296Z,2.70
2023-01-28T21:00:54.110Z,2.73
2023-01-28T21:03:21.085Z,2.90
2023-01-28T21:05:48.492Z,3.20
2023-01-28T21:08:17.395Z,3.13
2023-01-28T21:10:44.454Z,2.90
2023-01-28T21:13:12.180Z,3.10
2023-01-28T21:15:39.015Z,3.17
2023-01-28T21:18:06.328Z,3.00
2023-01-28T21:20:34.109Z,2.90
2023-01-28T21:23:00.972Z,2.80
2023-01-28T21:25:32.173Z,3.27
2023-01-28T21:27:59.045Z,3.23
2023-01-28T21:30:25.910Z,4.33
2023-01-28T21:32:52.920Z,3.10
2023-01-28T21:35:19.856Z,2.77
2023-01-28T21:37:46.940Z,2.70
2023-01-28T21:40:14.426Z,2.73
2023-01-28T21:42:43.498Z,2.90
2023-01-28T21:45:11.467Z,2.70
2023-01-28T21:47:38.377Z,2.90
2023-01-28T21:50:05.987Z,3.10
2023-01-28T21:52:32.883Z,3.30
2023-01-28T21:54:59.960Z,3.30
2023-01-28T21:57:26.785Z,2.97
2023-01-28T21:59:54.917Z,3.37
2023-01-28T22:02:23.900Z,2.80
2023-01-28T22:04:50.914Z,3.07
2023-01-28T22:07:20.049Z,2.93
2023-01-28T22:09:47.556Z,2.60
2023-01-28T22:12:15.441Z,2.50
2023-01-28T22:14:43.820Z,2.70
2023-01-28T22:17:12.242Z,2.57
2023-01-28T22:19:39.455Z,2.63
2023-01-28T22:22:06.822Z,2.73
2023-01-28T22:24:33.761Z,2.93
2023-01-28T22:27:00.709Z,2.73
2023-01-28T22:29:27.587Z,2.73
2023-01-28T22:31:54.991Z,2.90
2023-01-28T22:34:23.922Z,2.40
2023-01-28T22:36:51.593Z,2.73
2023-01-28T22:39:19.074Z,2.97
2023-01-28T22:41:46.778Z,2.33
2023-01-28T22:44:13.958Z,2.33
2023-01-28T22:46:41.028Z,2.67
2023-01-28T22:49:08.093Z,2.83
2023-01-28T22:51:36.722Z,2.90
2023-01-28T22:54:03.877Z,2.50
2023-01-28T22:56:31.696Z,2.87
2023-01-28T22:59:01.012Z,2.90
2023-01-28T23:01:28.489Z,2.80
2023-01-28T23:03:56.264Z,2.67
2023-01-28T23:06:24.628Z,3.17
2023-01-28T23:08:54.205Z,3.13
2023-01-28T23:11:28.595Z,3.17
2023-01-28T23:14:15.699Z,2.73
2023-01-28T23:17:01.298Z,2.73
2023-01-28T23:19:46.978Z,3.13
2023-01-28T23:22:34.497Z,2.83
2023-01-28T23:25:02.675Z,2.90
2023-01-28T23:27:29.516Z,2.87
2023-01-28T23:29:56.362Z,3.03
2023-01-28T23:32:23.363Z,2.77
2023-01-28T23:34:50.371Z,2.60
2023-01-28T23:37:17.639Z,2.77
2023-01-28T23:39:44.574Z,3.27
2023-01-28T23:42:15.310Z,3.37
2023-01-28T23:44:42.479Z,3.60
2023-01-28T23:47:10.064Z,3.10
2023-01-28T23:49:37.266Z,3.00
2023-01-28T23:52:05.504Z,3.57
2023-01-28T23:54:32.548Z,3.23
2023-01-28T23:57:00.184Z,3.47
2023-01-28T23:59:28.415Z,3.20
